createdAt,value
2022-09-03T00:00:57.743Z,63.40
2022-09-03T00:03:33.211Z,63.60
2022-09-03T00:06:13.349Z,63.50
2022-09-03T00:08:47.791Z,63.50
2022-09-03T00:11:20.860Z,63.50
2022-09-03T00:14:00.034Z,63.60
2022-09-03T00:16:35.100Z,63.70
2022-09-03T00:19:04.935Z,63.70
2022-09-03T00:21:41.240Z,63.80
2022-09-03T00:24:15.170Z,63.90
2022-09-03T00:26:48.947Z,64.10
2022-09-03T00:29:21.494Z,64.20
2022-09-03T00:31:56.235Z,64.20
2022-09-03T00:34:28.321Z,64.30
2022-09-03T00:36:59.389Z,64.40
2022-09-03T00:39:29.331Z,65.20
2022-09-03T00:42:14.992Z,64.60
2022-09-03T00:45:00.343Z,64.70
2022-09-03T00:47:42.041Z,64.70
2022-09-03T00:50:16.240Z,65.60
2022-09-03T00:52:53.150Z,64.80
2022-09-03T00:55:35.014Z,64.90
2022-09-03T00:58:21.559Z,65.00
2022-09-03T01:00:53.302Z,65.10
2022-09-03T01:03:33.515Z,65.20
2022-09-03T01:06:20.124Z,65.30
2022-09-03T01:09:18.067Z,65.60
2022-09-03T01:11:57.108Z,65.70
2022-09-03T01:14:34.983Z,65.80
2022-09-03T01:17:14.555Z,65.90
2022-09-03T01:20:15.321Z,65.90
2022-09-03T01:23:20.367Z,66.10
2022-09-03T01:26:02.195Z,66.10
2022-09-03T01:28:47.840Z,66.10
2022-09-03T01:31:26.720Z,66.20
2022-09-03T01:34:06.003Z,66.30
2022-09-03T01:36:45.803Z,66.40
2022-09-03T01:39:23.936Z,66.60
2022-09-03T01:42:20.922Z,66.60
2022-09-03T01:45:06.439Z,66.60
2022-09-03T01:47:51.716Z,66.80
2022-09-03T01:50:37.783Z,66.90
2022-09-03T01:53:13.202Z,67.00
2022-09-03T01:55:59.627Z,67.10
2022-09-03T01:58:34.606Z,67.30
2022-09-03T02:01:11.341Z,67.50
2022-09-03T02:03:45.033Z,67.60
2022-09-03T02:06:13.864Z,67.70
2022-09-03T02:08:42.024Z,67.80
2022-09-03T02:11:11.255Z,67.90
2022-09-03T02:13:42.222Z,68.00
2022-09-03T02:16:16.037Z,68.10
2022-09-03T02:18:47.592Z,68.30
2022-09-03T02:21:21.157Z,68.30
2022-09-03T02:23:50.367Z,68.30
2022-09-03T02:26:23.263Z,68.40
2022-09-03T02:28:52.831Z,68.40
2022-09-03T02:31:22.655Z,68.50
2022-09-03T02:33:58.967Z,68.60
2022-09-03T02:36:33.511Z,68.70
2022-09-03T02:39:01.838Z,69.00
2022-09-03T02:41:32.791Z,69.10
2022-09-03T02:44:05.814Z,69.10
2022-09-03T02:46:40.195Z,69.50
2022-09-03T02:49:10.594Z,69.60
2022-09-03T02:51:43.043Z,69.60
2022-09-03T02:54:12.049Z,69.80
2022-09-03T02:56:43.203Z,69.80
2022-09-03T02:59:13.569Z,70.00
2022-09-03T03:01:43.140Z,70.10
2022-09-03T03:04:15.000Z,70.10
2022-09-03T03:06:47.580Z,70.20
2022-09-03T03:09:16.109Z,70.40
2022-09-03T03:11:44.272Z,70.50
2022-09-03T03:14:12.652Z,70.70
2022-09-03T03:16:42.273Z,70.70
2022-09-03T03:19:12.905Z,71.00
2022-09-03T03:21:43.651Z,71.20
2022-09-03T03:24:14.325Z,71.30
2022-09-03T03:26:42.612Z,71.50
2022-09-03T03:29:17.534Z,72.40
2022-09-03T03:31:49.322Z,71.70
2022-09-03T03:34:17.508Z,71.20
2022-09-03T03:36:45.685Z,71.90
2022-09-03T03:39:16.164Z,72.00
2022-09-03T03:41:44.335Z,72.10
2022-09-03T03:44:12.488Z,72.40
2022-09-03T03:46:43.262Z,72.60
2022-09-03T03:49:15.056Z,72.80
2022-09-03T03:51:43.214Z,72.90
2022-09-03T03:54:17.505Z,73.00
2022-09-03T03:56:46.877Z,73.20
2022-09-03T03:59:23.671Z,73.40
2022-09-03T04:01:53.077Z,73.80
2022-09-03T04:04:22.666Z,74.20
2022-09-03T04:06:50.845Z,74.10
2022-09-03T04:09:19.010Z,74.10
2022-09-03T04:11:47.206Z,74.00
2022-09-03T04:14:15.362Z,74.10
2022-09-03T04:16:43.570Z,74.30
2022-09-03T04:19:11.828Z,74.40
2022-09-03T04:21:41.392Z,74.60
2022-09-03T04:24:09.582Z,74.60
2022-09-03T04:26:40.673Z,74.70
2022-09-03T04:29:11.051Z,74.70
2022-09-03T04:31:59.903Z,74.90
2022-09-03T04:34:29.117Z,75.00
2022-09-03T04:36:59.224Z,75.20
2022-09-03T04:39:28.076Z,75.30
2022-09-03T04:41:56.350Z,75.50
2022-09-03T04:44:24.559Z,75.50
2022-09-03T04:46:53.302Z,75.60
2022-09-03T04:49:21.638Z,76.60
2022-09-03T04:51:50.158Z,76.10
2022-09-03T04:54:22.248Z,76.50
2022-09-03T04:56:58.444Z,76.70
2022-09-03T04:59:27.772Z,76.80
2022-09-03T05:01:56.825Z,76.80
2022-09-03T05:04:25.073Z,77.20
2022-09-03T05:06:53.292Z,77.40
2022-09-03T05:09:22.844Z,77.50
2022-09-03T05:11:51.010Z,77.60
2022-09-03T05:14:19.353Z,77.80
2022-09-03T05:16:52.589Z,78.00
2022-09-03T05:19:21.434Z,78.20
2022-09-03T05:21:49.605Z,78.40
2022-09-03T05:24:18.596Z,78.60
2022-09-03T05:26:51.138Z,78.50
2022-09-03T05:29:22.057Z,79.10
2022-09-03T05:31:50.571Z,79.20
2022-09-03T05:34:21.439Z,79.30
2022-09-03T05:36:50.018Z,79.40
2022-09-03T05:39:18.294Z,79.80
2022-09-03T05:41:46.576Z,79.80
2022-09-03T05:44:16.156Z,80.50
2022-09-03T05:46:46.629Z,80.20
2022-09-03T05:49:14.800Z,80.30
2022-09-03T05:51:43.650Z,81.10
2022-09-03T05:54:12.280Z,80.70
2022-09-03T05:56:43.307Z,80.70
2022-09-03T05:59:15.211Z,81.10
2022-09-03T06:01:51.066Z,81.20
2022-09-03T06:04:21.518Z,81.50
2022-09-03T06:06:50.295Z,81.60
2022-09-03T06:09:20.469Z,81.70
2022-09-03T06:11:50.859Z,81.80
2022-09-03T06:14:23.816Z,81.60
2022-09-03T06:16:55.716Z,81.30
2022-09-03T06:19:23.944Z,81.80
2022-09-03T06:21:55.424Z,81.90
2022-09-03T06:24:27.965Z,81.50
2022-09-03T06:26:59.361Z,81.50
2022-09-03T06:29:28.926Z,81.20
2022-09-03T06:31:57.243Z,81.00
2022-09-03T06:34:28.642Z,80.90
2022-09-03T06:36:58.366Z,81.00
2022-09-03T06:39:27.135Z,80.10
2022-09-03T06:41:57.568Z,79.90
2022-09-03T06:44:37.551Z,79.60
2022-09-03T06:47:08.057Z,79.30
2022-09-03T06:49:36.319Z,79.00
2022-09-03T06:52:04.703Z,78.80
2022-09-03T06:54:35.150Z,78.60
2022-09-03T06:57:06.171Z,79.00
2022-09-03T06:59:34.396Z,78.90
2022-09-03T07:02:04.111Z,78.20
2022-09-03T07:04:35.470Z,77.60
2022-09-03T07:07:04.117Z,77.40
2022-09-03T07:09:38.374Z,77.00
2022-09-03T07:12:11.117Z,76.60
2022-09-03T07:14:39.342Z,76.30
2022-09-03T07:17:08.876Z,75.60
2022-09-03T07:19:40.117Z,75.50
2022-09-03T07:22:09.208Z,74.80
2022-09-03T07:24:37.826Z,74.70
2022-09-03T07:27:08.387Z,74.70
2022-09-03T07:29:38.044Z,75.00
2022-09-03T07:32:06.715Z,74.80
2022-09-03T07:34:36.463Z,73.80
2022-09-03T07:37:05.673Z,73.10
2022-09-03T07:39:34.673Z,72.70
2022-09-03T07:42:02.917Z,72.80
2022-09-03T07:44:31.207Z,73.20
2022-09-03T07:47:00.750Z,72.10
2022-09-03T07:49:29.036Z,72.40
2022-09-03T07:51:58.676Z,73.60
2022-09-03T07:54:27.437Z,72.60
2022-09-03T07:56:56.858Z,72.20
2022-09-03T07:59:26.110Z,71.90
2022-09-03T08:01:54.671Z,71.30
2022-09-03T08:04:23.064Z,71.70
2022-09-03T08:06:55.552Z,70.60
2022-09-03T08:09:25.500Z,70.40
2022-09-03T08:11:53.834Z,72.80
2022-09-03T08:14:22.235Z,70.70
2022-09-03T08:16:52.777Z,70.90
2022-09-03T08:19:20.956Z,70.10
2022-09-03T08:21:49.283Z,70.70
2022-09-03T08:24:21.008Z,69.30
2022-09-03T08:26:52.587Z,69.10
2022-09-03T08:29:23.656Z,69.10
2022-09-03T08:31:52.140Z,69.30
2022-09-03T08:34:22.627Z,69.30
2022-09-03T08:36:52.347Z,67.90
2022-09-03T08:39:20.627Z,67.60
2022-09-03T08:42:25.449Z,67.30
2022-09-03T08:44:58.594Z,67.00
2022-09-03T08:47:30.990Z,67.80
2022-09-03T08:50:02.982Z,67.40
2022-09-03T08:52:35.472Z,66.60
2022-09-03T08:55:20.138Z,66.30
2022-09-03T08:57:50.128Z,65.90
2022-09-03T09:00:22.115Z,65.50
2022-09-03T09:03:17.458Z,65.60
2022-09-03T09:05:52.274Z,64.90
2022-09-03T09:08:28.490Z,65.00
2022-09-03T09:11:08.415Z,64.90
2022-09-03T09:13:44.006Z,64.30
2022-09-03T09:16:19.875Z,63.50
2022-09-03T09:19:00.175Z,63.40
2022-09-03T09:21:31.556Z,62.80
2022-09-03T09:24:04.121Z,62.50
2022-09-03T09:26:33.182Z,62.40
2022-09-03T09:29:07.140Z,61.70
2022-09-03T09:31:39.672Z,61.50
2022-09-03T09:34:09.572Z,62.10
2022-09-03T09:36:43.640Z,61.60
2022-09-03T09:39:15.903Z,61.50
2022-09-03T09:41:45.179Z,60.90
2022-09-03T09:44:21.490Z,60.90
2022-09-03T09:47:03.737Z,61.30
2022-09-03T09:49:35.266Z,60.70
2022-09-03T09:52:07.967Z,60.80
2022-09-03T09:54:36.725Z,60.80
2022-09-03T09:57:06.997Z,59.40
2022-09-03T09:59:37.955Z,59.20
2022-09-03T10:02:13.724Z,59.60
2022-09-03T10:04:50.848Z,59.70
2022-09-03T10:07:30.145Z,58.80
2022-09-03T10:10:02.719Z,59.00
2022-09-03T10:12:35.832Z,58.40
2022-09-03T10:15:21.434Z,58.20
2022-09-03T10:17:58.699Z,58.90
2022-09-03T10:20:37.160Z,58.10
2022-09-03T10:23:13.404Z,57.60
2022-09-03T10:25:53.708Z,56.70
2022-09-03T10:28:24.385Z,57.10
2022-09-03T10:31:15.755Z,56.80
2022-09-03T10:33:51.017Z,56.70
2022-09-03T10:36:24.201Z,56.60
2022-09-03T10:39:01.636Z,56.20
2022-09-03T10:41:48.222Z,56.30
2022-09-03T10:44:35.313Z,56.30
2022-09-03T10:47:26.980Z,56.00
2022-09-03T10:50:04.312Z,55.90
2022-09-03T10:52:41.660Z,56.00
2022-09-03T10:55:19.728Z,55.60
2022-09-03T10:57:55.960Z,55.80
2022-09-03T11:00:26.064Z,55.30
2022-09-03T11:03:42.166Z,55.00
2022-09-03T11:06:16.777Z,54.70
2022-09-03T11:08:50.332Z,54.50
2022-09-03T11:11:21.742Z,54.80
2022-09-03T11:13:54.935Z,54.80
2022-09-03T11:16:29.612Z,54.30
2022-09-03T11:19:02.567Z,54.50
2022-09-03T11:21:33.771Z,53.70
2022-09-03T11:24:09.363Z,53.50
2022-09-03T11:26:39.597Z,53.90
2022-09-03T11:29:14.255Z,53.70
2022-09-03T11:31:57.862Z,53.90
2022-09-03T11:34:34.373Z,53.30
2022-09-03T11:37:20.566Z,52.60
2022-09-03T11:39:57.723Z,52.10
2022-09-03T11:42:38.358Z,52.40
2022-09-03T11:45:25.531Z,52.60
2022-09-03T11:47:54.912Z,52.70
2022-09-03T11:50:25.715Z,52.40
2022-09-03T11:53:08.555Z,53.40
2022-09-03T11:55:54.354Z,53.20
2022-09-03T11:58:27.776Z,51.70
2022-09-03T12:00:57.372Z,51.50
2022-09-03T12:03:29.590Z,52.00
2022-09-03T12:06:23.128Z,51.90
2022-09-03T12:09:13.855Z,51.80
2022-09-03T12:11:55.137Z,51.70
2022-09-03T12:14:32.976Z,51.60
2022-09-03T12:17:17.877Z,51.50
2022-09-03T12:19:52.933Z,51.10
2022-09-03T12:22:22.763Z,51.20
2022-09-03T12:24:52.759Z,51.30
2022-09-03T12:27:24.893Z,51.50
2022-09-03T12:29:59.967Z,51.20
2022-09-03T12:32:32.487Z,50.90
2022-09-03T12:35:13.472Z,50.90
2022-09-03T12:40:34.602Z,50.50
2022-09-03T12:46:10.739Z,50.50
2022-09-03T12:48:43.642Z,50.20
2022-09-03T12:54:02.164Z,50.70
2022-09-03T12:56:34.920Z,51.00
2022-09-03T12:59:07.341Z,51.30
2022-09-03T13:01:46.756Z,51.50
2022-09-03T13:04:20.256Z,51.20
2022-09-03T13:06:56.239Z,51.20
2022-09-03T13:09:26.421Z,51.70
2022-09-03T13:11:56.154Z,51.10
2022-09-03T13:14:24.428Z,51.10
2022-09-03T13:17:25.165Z,51.20
2022-09-03T13:20:08.858Z,51.40
2022-09-03T13:22:47.428Z,51.00
2022-09-03T13:25:24.757Z,51.20
2022-09-03T13:28:05.573Z,51.00
2022-09-03T13:30:39.625Z,50.50
2022-09-03T13:33:18.963Z,50.70
2022-09-03T13:35:53.396Z,50.30
2022-09-03T13:38:31.893Z,50.80
2022-09-03T13:41:10.893Z,50.70
2022-09-03T13:43:44.493Z,50.50
2022-09-03T13:46:17.863Z,50.50
2022-09-03T13:49:07.105Z,50.20
2022-09-03T13:51:44.546Z,50.80
2022-09-03T13:54:31.171Z,50.20
2022-09-03T13:57:20.096Z,50.10
2022-09-03T13:59:53.776Z,50.00
2022-09-03T14:02:30.035Z,49.60
2022-09-03T14:05:07.797Z,49.30
2022-09-03T14:08:08.973Z,50.00
2022-09-03T14:10:53.749Z,50.10
2022-09-03T14:13:31.866Z,49.80
2022-09-03T14:16:08.297Z,49.50
2022-09-03T14:18:48.203Z,49.20
2022-09-03T14:21:21.922Z,49.80
2022-09-03T14:23:55.852Z,49.70
2022-09-03T14:26:39.016Z,50.10
2022-09-03T14:29:17.255Z,49.40
2022-09-03T14:32:08.712Z,49.50
2022-09-03T14:34:47.164Z,48.30
2022-09-03T14:37:35.865Z,48.70
2022-09-03T14:40:14.876Z,48.80
2022-09-03T14:43:01.092Z,49.10
2022-09-03T14:46:07.174Z,49.50
2022-09-03T14:48:53.742Z,48.50
2022-09-03T14:51:39.557Z,48.20
2022-09-03T14:54:31.948Z,48.50
2022-09-03T14:57:12.892Z,48.10
2022-09-03T15:00:06.052Z,48.00
2022-09-03T15:03:06.436Z,48.40
2022-09-03T15:06:03.773Z,48.40
2022-09-03T15:08:48.644Z,48.40
2022-09-03T15:11:20.284Z,48.60
2022-09-03T15:13:53.869Z,48.90
2022-09-03T15:16:33.412Z,49.40
2022-09-03T15:19:18.044Z,50.30
2022-09-03T15:22:08.489Z,50.00
2022-09-03T15:24:47.791Z,49.90
2022-09-03T15:27:41.674Z,50.30
2022-09-03T15:30:13.922Z,50.20
2022-09-03T15:32:53.146Z,50.10
2022-09-03T15:35:48.761Z,50.70
2022-09-03T15:38:27.575Z,50.30
2022-09-03T15:40:59.844Z,50.00
2022-09-03T15:43:31.420Z,50.10
2022-09-03T15:46:05.462Z,50.50
2022-09-03T15:48:40.213Z,50.90
2022-09-03T15:51:17.334Z,50.70
2022-09-03T15:53:53.465Z,50.60
2022-09-03T15:56:28.190Z,51.00
2022-09-03T15:59:04.889Z,51.20
2022-09-03T16:01:46.187Z,51.50
2022-09-03T16:04:28.990Z,51.60
2022-09-03T16:07:02.842Z,51.70
2022-09-03T16:10:01.951Z,51.50
2022-09-03T16:12:41.884Z,51.90
2022-09-03T16:15:15.568Z,52.00
2022-09-03T16:17:55.919Z,52.00
2022-09-03T16:20:30.162Z,52.20
2022-09-03T16:23:06.928Z,52.20
2022-09-03T16:25:48.854Z,52.20
2022-09-03T16:28:21.136Z,52.50
2022-09-03T16:31:05.134Z,52.90
2022-09-03T16:33:41.996Z,53.10
2022-09-03T16:36:28.299Z,52.80
2022-09-03T16:39:03.410Z,53.50
2022-09-03T16:41:40.779Z,53.40
2022-09-03T16:44:14.844Z,53.60
2022-09-03T16:46:51.457Z,53.80
2022-09-03T16:49:40.054Z,54.10
2022-09-03T16:52:18.418Z,54.00
2022-09-03T16:55:04.408Z,54.20
2022-09-03T16:57:57.369Z,54.30
2022-09-03T17:00:40.541Z,54.50
2022-09-03T17:03:33.849Z,54.70
2022-09-03T17:06:29.150Z,54.50
2022-09-03T17:09:06.837Z,54.80
2022-09-03T17:11:52.630Z,55.10
2022-09-03T17:14:50.621Z,55.10
2022-09-03T17:17:33.257Z,55.30
2022-09-03T17:20:10.080Z,55.30
2022-09-03T17:22:51.090Z,55.60
2022-09-03T17:25:29.048Z,55.10
2022-09-03T17:28:22.688Z,55.20
2022-09-03T17:30:59.210Z,55.40
2022-09-03T17:33:50.748Z,55.50
2022-09-03T17:36:24.367Z,55.70
2022-09-03T17:39:39.098Z,55.50
2022-09-03T17:42:20.422Z,55.50
2022-09-03T17:45:04.099Z,55.60
2022-09-03T17:47:52.528Z,55.50
2022-09-03T17:50:26.037Z,55.80
2022-09-03T17:52:58.148Z,55.60
2022-09-03T17:55:33.690Z,55.50
2022-09-03T17:58:11.020Z,55.60
2022-09-03T18:00:53.070Z,55.80
2022-09-03T18:03:28.059Z,55.70
2022-09-03T18:06:01.107Z,55.80
2022-09-03T18:08:41.643Z,55.80
2022-09-03T18:11:13.955Z,56.00
2022-09-03T18:13:51.847Z,56.00
2022-09-03T18:16:27.339Z,56.20
2022-09-03T18:19:01.694Z,56.40
2022-09-03T18:21:56.146Z,56.50
2022-09-03T18:24:51.107Z,56.60
2022-09-03T18:27:40.984Z,56.70
2022-09-03T18:30:29.564Z,56.90
2022-09-03T18:33:16.095Z,57.10
2022-09-03T18:36:04.236Z,57.20
2022-09-03T18:38:51.713Z,57.40
2022-09-03T18:42:02.214Z,57.40
2022-09-03T18:45:20.360Z,57.70
2022-09-03T18:48:24.417Z,57.80
2022-09-03T18:51:25.610Z,58.10
2022-09-03T18:57:26.193Z,58.50
2022-09-03T19:00:28.619Z,58.60
2022-09-03T19:03:34.834Z,58.60
2022-09-03T19:06:34.906Z,58.60
2022-09-03T19:09:30.621Z,58.90
2022-09-03T19:12:30.313Z,59.10
2022-09-03T19:15:23.885Z,59.20
2022-09-03T19:18:36.299Z,59.20
2022-09-03T19:21:35.841Z,59.50
2022-09-03T19:24:24.263Z,59.60
2022-09-03T19:27:51.701Z,59.80
2022-09-03T19:30:33.399Z,59.90
2022-09-03T19:33:29.411Z,60.10
2022-09-03T19:36:26.320Z,61.00
2022-09-03T19:39:27.396Z,60.30
2022-09-03T19:42:21.015Z,60.50
2022-09-03T19:45:17.834Z,61.00
2022-09-03T19:48:17.401Z,61.50
2022-09-03T19:51:15.234Z,62.00
2022-09-03T19:54:06.194Z,62.30
2022-09-03T19:56:57.597Z,62.50
2022-09-03T19:59:54.706Z,62.60
2022-09-03T20:02:41.431Z,62.50
2022-09-03T20:05:32.162Z,62.40
2022-09-03T20:08:18.898Z,62.50
2022-09-03T20:10:53.342Z,62.80
2022-09-03T20:13:23.940Z,63.10
2022-09-03T20:16:02.237Z,63.40
2022-09-03T20:18:40.992Z,63.70
2022-09-03T20:21:19.104Z,64.20
2022-09-03T20:23:55.803Z,64.60
2022-09-03T20:26:41.949Z,65.10
2022-09-03T20:29:29.267Z,65.30
2022-09-03T20:32:05.998Z,65.70
2022-09-03T20:34:45.207Z,65.80
2022-09-03T20:37:27.549Z,65.90
2022-09-03T20:40:09.846Z,65.80
2022-09-03T20:42:59.410Z,66.10
2022-09-03T20:45:41.149Z,66.20
2022-09-03T20:48:22.072Z,66.10
2022-09-03T20:51:02.675Z,66.20
2022-09-03T20:54:00.585Z,66.40
2022-09-03T20:56:34.825Z,66.50
2022-09-03T20:59:12.900Z,66.40
2022-09-03T21:01:52.677Z,66.70
2022-09-03T21:04:37.558Z,66.90
2022-09-03T21:07:20.077Z,67.00
2022-09-03T21:09:56.622Z,67.10
2022-09-03T21:12:32.405Z,67.10
2022-09-03T21:15:08.762Z,67.50
2022-09-03T21:17:51.627Z,67.50
2022-09-03T21:20:28.978Z,67.70
2022-09-03T21:23:06.804Z,67.70
2022-09-03T21:25:40.880Z,68.10
2022-09-03T21:28:18.815Z,68.70
2022-09-03T21:30:50.662Z,69.00
2022-09-03T21:33:25.574Z,69.20
2022-09-03T21:36:00.768Z,69.70
2022-09-03T21:38:35.067Z,70.40
2022-09-03T21:41:13.580Z,70.90
2022-09-03T21:43:49.821Z,71.50
2022-09-03T21:46:23.406Z,73.10
2022-09-03T21:48:55.989Z,72.90
2022-09-03T21:51:28.920Z,73.50
2022-09-03T21:54:02.821Z,73.80
2022-09-03T21:57:12.929Z,74.20
2022-09-03T22:00:24.075Z,74.30
2022-09-03T22:02:52.495Z,74.50
2022-09-03T22:05:20.997Z,74.60
2022-09-03T22:08:02.345Z,74.70
2022-09-03T22:10:40.429Z,74.80
2022-09-03T22:13:18.216Z,74.80
2022-09-03T22:15:51.092Z,74.40
2022-09-03T22:18:29.217Z,74.40
2022-09-03T22:21:11.408Z,74.50
2022-09-03T22:23:57.188Z,74.80
2022-09-03T22:26:38.831Z,74.90
2022-09-03T22:29:15.668Z,75.00
2022-09-03T22:31:58.836Z,75.20
2022-09-03T22:34:54.419Z,75.40
2022-09-03T22:37:35.855Z,75.80
2022-09-03T22:40:13.176Z,76.00
2022-09-03T22:43:00.799Z,76.00
2022-09-03T22:45:44.110Z,76.50
2022-09-03T22:48:28.725Z,76.60
2022-09-03T22:50:58.933Z,76.90
2022-09-03T22:53:43.956Z,77.50
2022-09-03T22:56:18.831Z,78.00
2022-09-03T22:58:55.740Z,78.10
2022-09-03T23:01:28.691Z,78.30
2022-09-03T23:04:07.091Z,79.50
2022-09-03T23:06:40.947Z,79.00
2022-09-03T23:09:18.487Z,79.10
2022-09-03T23:11:52.683Z,79.30
2022-09-03T23:14:25.232Z,79.50
2022-09-03T23:16:56.960Z,79.60
2022-09-03T23:19:30.543Z,79.90
2022-09-03T23:22:02.761Z,80.00
2022-09-03T23:24:36.966Z,80.50
2022-09-03T23:27:10.213Z,80.30
2022-09-03T23:29:42.020Z,80.80
2022-09-03T23:32:10.424Z,81.10
2022-09-03T23:34:40.692Z,81.70
2022-09-03T23:37:39.040Z,82.60
2022-09-03T23:40:28.945Z,81.90
2022-09-03T23:43:29.791Z,82.10
2022-09-03T23:46:09.126Z,82.30
2022-09-03T23:48:50.782Z,82.60
2022-09-03T23:51:28.165Z,82.80
2022-09-03T23:54:08.164Z,83.10
2022-09-03T23:57:00.612Z,83.00
2022-09-03T23:59:43.316Z,83.50
